Weather observations for the past three days for
Belen Regional Airport
Imperial (Metric)
Date Time (mdt) Wind (mph) Vis. (mi.) Weather Sky Cond. Temperature (ºF) Relative Humidity Wind Chill (°F) Heat Index (°F) Pressure Precipitation (in)
Air Dwpt 6 hour altimeter (in) sea level (mb) 1 hr 3 hr 6 hr
Max. Min.
31 07:35 N 12 10.00 Partly Cloudy SCT110 71.1 50.9 49% 30.19 0.0
31 07:15 N 9 10.00 Mostly Cloudy BKN110 70 51.3 52% 30.19 0.0
31 06:55 N 9 10.00 Partly Cloudy SCT110 69.3 51.3 53% 30.18 0.0
31 06:35 NE 10 10.00 Partly Cloudy SCT110 69.3 51.4 53% 30.18 0.0
31 06:15 NE 7 10.00 Mostly Cloudy BKN110 69.1 52.2 55% 30.18 0.0
31 05:55 E 7 10.00 Partly Cloudy SCT110 69.8 52.3 72.5 66.2 54% 30.18 0.0
31 05:35 NE 10 G 16 10.00 Fair CLR 69.8 52.2 54% 30.18 0.0
31 05:15 NE 8 10.00 Fair CLR 69.8 52.7 55% 30.18 0.0
31 04:55 N 13 10.00 Fair CLR 70 52.9 55% 30.18 0.0
31 04:35 N 13 10.00 Fair CLR 70.7 52.9 53% 30.18 0.0
31 04:15 N 15 10.00 Fair CLR 71.8 50.7 48% 30.17 0.0
31 03:55 N 12 10.00 Fair CLR 71.6 50.4 47% 30.17 0.0
31 03:35 N 14 10.00 Partly Cloudy SCT110 71.6 50.5 48% 30.17 0.0
31 03:15 NW 10 10.00 Mostly Cloudy BKN110 70.3 52.9 54% 30.18 0.0
31 02:55 NW 9 10.00 Partly Cloudy SCT110 67.6 55.2 65% 30.18 0.0
31 02:35 NW 5 10.00 Partly Cloudy SCT110 67.5 54.9 64% 30.16 0.0
31 02:15 Calm 10.00 Partly Cloudy SCT110 69.1 54 59% 30.16 0.0
31 01:55 Calm 10.00 Thunderstorm in Vicinity SCT110 70.2 52.2 53% 30.17 0.0
31 01:35 Calm 10.00 Mostly Cloudy BKN110 72.1 51.8 49% 30.17 0.0
31 01:15 N 5 10.00 Overcast OVC120 72.1 52.5 50% 30.16 0.0
31 00:55 NW 9 10.00 Mostly Cloudy BKN120 69.3 51.6 54% 30.14 0.0
31 00:35 NW 6 10.00 Mostly Cloudy BKN120 68.4 50.9 54% 30.15 0.0
31 00:15 NW 5 10.00 Fair CLR 68 50.4 53% 30.15 0.0
30 23:55 W 3 10.00 Fair CLR 68.9 50 84.4 68.9 51% 30.16 0.0
30 23:35 Calm 10.00 Fair CLR 70.2 48.9 47% 30.16 0.0
30 23:15 Calm 10.00 Fair CLR 72.7 49.3 44% 30.15 0.0
30 22:55 Calm 10.00 Fair CLR 72.1 49.3 45% 30.14 0.0
30 22:35 N 3 10.00 Fair CLR 73 48.9 43% 30.14 0.0
30 22:15 N 3 10.00 Fair CLR 73.8 48.4 41% 30.14 0.0
30 21:55 N 7 10.00 Fair CLR 74.8 48.6 40% 30.14 0.0
30 21:35 Calm 10.00 Fair CLR 77.7 48.2 35% 78 30.14 0.0
30 21:15 Calm 10.00 Fair CLR 77.9 48.2 35% 78 30.13 0.0
30 20:55 N 8 10.00 Fair CLR 77.2 49.3 38% 78 30.11 0.0
30 20:35 NW 9 10.00 Fair CLR 76.8 52 42% 78 30.11 0.0
30 20:15 NW 9 10.00 Fair CLR 77.9 51.8 40% 79 30.11 0.0
30 19:35 NW 13 10.00 Fair CLR 78.1 52.5 41% 79 30.1 0.0
30 19:15 NW 14 G 17 10.00 Fair CLR 79.9 50.9 36% 80 30.1 0.0
30 18:55 NW 9 10.00 Partly Cloudy SCT026 SCT036 SCT050 80.6 50.4 35% 80 30.09 0.0
30 18:35 NW 17 10.00 Mostly Cloudy SCT029 SCT050 BKN070 82 49.1 32% 81 30.1 0.0
30 18:15 W 22 G 26 10.00 Mostly Cloudy and Breezy SCT070 BKN110 84.2 44.6 25% 82 30.11 0.0
30 17:55 NW 21 10.00 Mostly Cloudy and Breezy BKN110 82.2 48.2 93.7 81 31% 81 30.12 0.0
30 17:35 NW 16 G 23 10.00 Partly Cloudy SCT095 82.6 49.1 31% 81 30.11 0.0
30 17:15 W 21 G 26 10.00 Mostly Cloudy and Breezy SCT080 SCT095 BKN120 81 50.7 35% 80 30.11 0.0
30 16:55 W 9 10.00 Fair CLR 89.4 43.5 20% 86 30.1 0.0
30 16:35 SE 8 10.00 Fair CLR 91 43.3 19% 87 30.09 0.0
30 16:15 E 8 10.00 Fair CLR 91.6 43 18% 88 30.09 0.0
30 15:55 E 5 10.00 Fair CLR 90.5 42.8 19% 87 30.1 0.0
30 15:35 Calm 10.00 Fair CLR 91 43.2 19% 87 30.11 0.0
30 15:15 Calm 10.00 Fair CLR 93 43.9 18% 89 30.12 0.0
30 14:55 S 3 10.00 Fair CLR 90.3 44.6 20% 87 30.13 0.0
30 14:35 NW 5 10.00 Fair CLR 90.9 45.3 21% 87 30.14 0.0
30 14:15 Calm 10.00 Fair CLR 89.8 45.7 22% 86 30.15 0.0
30 13:55 Calm 10.00 Fair CLR 88.7 45.9 23% 85 30.16 0.0
30 13:35 W 5 10.00 Fair CLR 88.3 45.5 23% 85 30.17 0.0
30 13:15 SW 6 10.00 Fair CLR 87.8 46.2 24% 85 30.18 0.0
30 12:55 NW 6 10.00 Fair CLR 88 46.4 24% 85 30.18 0.0
30 12:35 NW 5 10.00 Fair CLR 87.3 47.1 25% 84 30.19 0.0
30 12:15 NW 7 10.00 Fair CLR 85.8 48.2 27% 83 30.2 0.0
30 11:55 Calm 10.00 Fair CLR 83.8 50.2 83.8 63.9 31% 82 30.21 0.0
30 11:35 N 3 10.00 Fair CLR 81.5 50.4 34% 80 30.22 0.0
30 11:15 N 6 10.00 Fair CLR 82.2 50.4 33% 81 30.22 0.0
30 10:55 NE 6 10.00 Fair CLR 82.4 50.4 33% 81 30.22 0.0
30 10:35 NE 5 10.00 Fair CLR 81 50 34% 80 30.23 0.0
30 10:15 NE 8 10.00 Fair CLR 80.8 50.4 35% 80 30.22 0.0
30 09:55 E 7 10.00 Fair CLR 79 53.6 42% 79 30.23 0.0
30 09:35 E 7 10.00 Fair CLR 78.1 54.3 44% 79 30.23 0.0
30 09:15 N 6 10.00 Fair CLR 77 52.9 43% 78 30.23 0.0
30 08:55 NW 5 10.00 Fair CLR 74.5 55.2 51% 30.25 0.0
30 08:35 NW 3 10.00 Fair CLR 73.6 55.6 53% 30.25 0.0
30 08:15 Calm 10.00 Fair CLR 71.1 57.4 62% 30.25 0.0
30 07:55 Calm 10.00 Fair CLR 69.4 58.5 68% 30.25 0.0
30 07:35 Calm 10.00 Fair CLR 67.5 58.1 72% 30.25 0.0
30 07:15 Calm 10.00 Fair CLR 65.7 59 79% 30.23 0.0
30 06:55 SW 3 10.00 Fair CLR 64.8 58.3 80% 30.23 0.0
30 06:35 SW 3 10.00 Partly Cloudy SCT120 64.8 58.6 81% 30.23 0.0
30 06:15 N 3 10.00 Partly Cloudy SCT120 64.4 59 83% 30.22 0.0
30 05:55 NW 3 10.00 Partly Cloudy SCT110 64.6 58.6 71.6 63.5 81% 30.22 0.0
30 05:35 NW 7 10.00 Mostly Cloudy BKN110 64.2 57.9 80% 30.21 0.0
30 05:15 W 5 10.00 Fair CLR 65.7 57.4 75% 30.21 0.0
30 04:55 Calm 10.00 Fair CLR 66.7 58.1 74% 30.21 0.0
30 04:35 Calm 10.00 Fair CLR 65.7 58.3 77% 30.22 0.0
30 04:15 Calm 10.00 Fair CLR 65.3 57.7 77% 30.22 0.0
30 03:55 Calm 10.00 Partly Cloudy SCT120 67.5 57.6 71% 30.22 0.0
30 03:35 Calm 10.00 Mostly Cloudy BKN120 67.1 58.3 73% 30.22 0.0
30 03:15 W 5 10.00 Fair CLR 67.1 57.9 73% 30.21 0.0
30 02:55 Calm 10.00 Fair CLR 68.2 55.9 65% 30.22 0.0
30 02:35 NW 8 10.00 Fair CLR 68.9 56.5 65% 30.22 0.0
30 02:15 NW 12 10.00 Fair CLR 69.3 55.8 62% 30.22 0.0
30 01:55 NW 9 10.00 Partly Cloudy SCT110 68.9 55.8 63% 30.22 0.0
30 01:35 N 7 10.00 Mostly Cloudy BKN110 71.2 54 55% 30.22 0.0
30 01:15 NE 9 10.00 Partly Cloudy SCT120 71.1 54.1 55% 30.21 0.0
30 00:55 NE 12 10.00 Fair CLR 71.4 54.7 56% 30.22 0.0
30 00:35 NE 14 10.00 Partly Cloudy SCT110 71.6 54.5 55% 30.23 0.0
30 00:15 NE 14 10.00 Mostly Cloudy BKN110 71.6 55 56% 30.23 0.0
29 23:55 NE 15 10.00 Fair CLR 71.8 54.7 78.3 70 55% 30.24 0.0 0.01
29 23:35 N 14 G 18 10.00 Fair CLR 72.5 54.7 54% 30.25 0.0
29 23:15 N 15 G 21 10.00 Fair CLR 72.1 55.4 56% 30.25 0.0
29 22:55 N 16 G 22 10.00 Fair CLR 71.8 55.9 58% 30.22 0.0
29 22:35 NW 14 10.00 Fair CLR 72 56.5 58% 30.21 0.0
29 22:15 NW 14 G 20 10.00 Partly Cloudy SCT120 73 56.8 57% 30.2 0.0
29 21:55 NW 14 10.00 Partly Cloudy SCT110 73.2 57.9 59% 30.2 0.0
29 21:35 NW 13 G 16 10.00 Partly Cloudy SCT110 72.5 58.6 62% 30.17 0.0
29 21:15 N 6 10.00 Fair CLR 73 56.5 56% 30.16 0.0
29 20:55 N 7 10.00 Fair CLR 76.1 52 43% 78 30.15 0.0 0.01
29 20:35 E 7 10.00 Partly Cloudy SCT120 76.5 51.6 42% 78 30.14 0.0
29 20:15 NE 10 10.00 Mostly Cloudy BKN120 77.5 51.1 40% 78 30.12 0.0
29 19:55 NE 9 10.00 Partly Cloudy SCT120 77.2 53.1 43% 78 30.12 0.0
29 19:35 N 16 10.00 Fair CLR 77.9 54.1 44% 79 30.11 0.0
29 19:15 N 14 10.00 Partly Cloudy SCT120 77.7 55 46% 79 30.11 0.0
29 18:55 NW 17 10.00 Mostly Cloudy BKN120 75 57.2 54% 78 30.11 0.0 0.01
29 18:35 NW 15 G 24 10.00 Partly Cloudy SCT090 SCT110 72.7 59 62% 30.12 0.0 0.01
29 18:15 NW 21 G 37 10.00 Thunderstorm Light Rain and Breezy SCT065 SCT090 BKN110 71.2 59.2 66% 30.11 0.0 0.01
29 17:55 W 36 G 43 7.00 Thunderstorm Light Rain and Windy BKN110 79.3 53.2 97.3 79.3 40% 80 30.13 0.0
29 17:35 S 7 10.00 Thunderstorm in Vicinity SCT110 93.2 41 16% 89 30.08 0.0
29 17:15 S 8 10.00 Partly Cloudy SCT110 94.3 41 16% 90 30.08 0.0
29 16:55 Calm 10.00 Partly Cloudy SCT120 95.5 41 15% 91 30.08 0.0
29 16:35 SE 3 G 10 10.00 Partly Cloudy SCT110 95.4 41 15% 91 30.1 0.0
29 16:15 S 5 10.00 Partly Cloudy SCT110 96.8 41.2 15% 92 30.1 0.0
29 15:55 S 3 10.00 Fair CLR 97.2 41.4 15% 93 30.11 0.0
29 15:35 S 3 10.00 Fair CLR 96.1 41 15% 92 30.12 0.0
29 15:15 SW 8 10.00 Fair CLR 96.3 41.4 15% 92 30.14 0.0
29 14:55 W 3 10.00 Fair CLR 94.6 40.8 15% 90 30.15 0.0
29 14:35 S 5 10.00 Fair CLR 93.4 40.8 16% 89 30.16 0.0
29 14:15 W 8 G 20 10.00 Fair CLR 95 41 15% 91 30.17 0.0
29 13:55 SW 3 10.00 Fair CLR 93.2 41 16% 89 30.18 0.0
29 13:35 NW 5 10.00 Fair CLR 92.8 41 16% 89 30.19 0.0
29 13:15 S 6 10.00 Fair CLR 92.5 41.7 17% 88 30.2 0.0
29 12:55 SE 3 10.00 Fair CLR 91 42.3 18% 87 30.22 0.0
29 12:35 S 7 10.00 Fair CLR 91.8 42.6 18% 88 30.23 0.0
29 12:15 Calm 10.00 Fair CLR 89.2 43.3 20% 86 30.24 0.0
29 11:55 E 3 10.00 Fair CLR 89.2 43.9 89.2 67.5 21% 86 30.25 0.0
29 11:35 SE 3 10.00 Fair CLR 87.6 44.6 22% 84 30.26 0.0
29 10:15 S 3 10.00 Fair CLR 84 45.5 26% 82 30.28 0.0
29 09:55 S 6 10.00 Fair CLR 83.7 45.7 26% 81 30.28 0.0
29 09:35 S 5 10.00 Fair CLR 82.9 45.3 27% 81 30.27 0.0
29 09:15 Calm 10.00 Fair CLR 80.8 45.1 29% 80 30.28 0.0
29 08:55 Calm 10.00 Fair CLR 79.3 44.6 29% 79 30.28 0.0
29 08:35 Calm 10.00 Fair CLR 77.7 45.1 32% 78 30.28 0.0
29 08:15 S 5 10.00 Fair CLR 75.9 45.7 34% 78 30.27 0.0
29 07:55 Calm 10.00 Fair CLR 73.8 45.9 37% 30.27 0.0
29 07:35 SE 3 10.00 Fair CLR 70 47.5 45% 30.27 0.0
29 07:15 Calm 10.00 Fair CLR 69.6 46.6 44% 30.26 0.0
29 06:55 Calm 10.00 Fair CLR 69.3 46.4 44% 30.25 0.0
29 06:35 Calm 10.00 Fair CLR 68.5 46.6 46% 30.25 0.0
29 06:15 NW 5 10.00 Fair CLR 68 44.2 42% 30.24 0.0
29 05:55 NW 5 10.00 Fair CLR 69.3 44.6 76.5 68.2 41% 30.24 0.0
29 05:35 NW 6 10.00 Fair CLR 68.5 44.6 42% 30.24 0.0
29 05:15 W 3 10.00 Fair CLR 71.2 44.1 38% 30.24 0.0
29 04:55 Calm 10.00 Fair CLR 72.7 45.3 38% 30.25 0.0
29 04:35 Calm 10.00 Fair CLR 73.4 44.8 36% 30.25 0.0
29 04:15 SW 3 10.00 Partly Cloudy SCT120 73.9 43.7 34% 30.25 0.0
29 03:55 SW 5 10.00 Fair CLR 75.4 43.7 32% 77 30.24 0.0
29 03:35 W 8 10.00 Partly Cloudy SCT120 75.6 43.7 32% 77 30.23 0.0
29 03:15 W 8 10.00 Fair CLR 76.1 43.7 32% 77 30.22 0.0
29 02:55 W 9 10.00 Fair CLR 76.5 43.5 31% 78 30.23 0.0
29 02:35 Calm 10.00 Fair CLR 75.4 43.3 32% 77 30.23 0.0
29 02:15 Calm 10.00 Fair CLR 73.6 42.8 33% 30.23 0.0
29 01:55 W 7 10.00 Fair CLR 73.8 43 33% 30.23 0.0
29 01:35 W 8 10.00 Fair CLR 73.9 43 33% 30.23 0.0
29 01:15 SW 7 10.00 Fair CLR 73.4 42.8 33% 30.23 0.0
29 00:55 W 8 10.00 Partly Cloudy SCT120 74.1 42.8 33% 30.24 0.0
29 00:35 W 9 10.00 Partly Cloudy SCT120 75 42.3 31% 77 30.23 0.0
29 00:15 W 8 10.00 Fair CLR 75.4 41.9 30% 77 30.23 0.0
28 23:55 W 8 10.00 Fair CLR 75.6 41.9 91.6 74.8 30% 77 30.23 0.0
28 23:35 W 9 10.00 Fair CLR 77.4 42.3 29% 78 30.23 0.0
28 23:15 W 9 10.00 Fair CLR 75.7 42.1 30% 77 30.23 0.0
28 22:55 W 6 10.00 Fair CLR 75.2 42.1 31% 77 30.23 0.0
28 22:35 W 5 10.00 Fair CLR 76.5 43.2 31% 77 30.22 0.0
28 22:15 SW 5 10.00 Partly Cloudy SCT120 78.1 43.7 30% 78 30.22 0.0
28 21:55 SW 7 10.00 Partly Cloudy SCT120 79.7 44.4 29% 79 30.22 0.0
28 21:35 SW 8 10.00 Fair CLR 81.1 45 28% 80 30.21 0.0
28 21:15 SW 10 10.00 Fair CLR 82.8 44.8 26% 81 30.21 0.0
28 20:55 SW 13 10.00 Fair CLR 83.5 44.2 25% 81 30.2 0.0
28 20:35 SW 14 G 25 10.00 Fair CLR 85.3 43.3 23% 82 30.19 0.0
28 20:15 W 14 G 17 10.00 Fair CLR 85.6 42.3 22% 83 30.18 0.0
28 19:55 W 7 10.00 Fair CLR 86.7 40.1 19% 83 30.16 0.0
28 19:35 W 9 10.00 Fair CLR 88.2 42.8 20% 85 30.15 0.0
28 19:15 SW 12 10.00 Fair CLR 88.7 42.1 20% 85 30.15 0.0
28 18:55 W 12 10.00 Fair CLR 89.1 42.1 19% 85 30.16 0.0
28 18:35 W 17 G 24 10.00 Fair CLR 90.5 42.8 19% 87 30.15 0.0
28 18:15 W 18 G 22 10.00 Fair CLR 91.6 43.2 19% 88 30.16 0.0
28 17:55 W 20 G 26 10.00 Fair CLR 91.2 44.4 98.4 89.6 20% 87 30.16 0.0
28 17:35 W 15 G 22 10.00 Fair CLR 96.1 39.6 14% 92 30.16 0.0
28 17:15 Calm 10.00 Partly Cloudy SCT120 96.1 37.4 13% 91 30.15 0.0
28 16:55 SE 7 10.00 Thunderstorm in Vicinity CLR 96.8 38.8 13% 92 30.15 0.0
28 16:35 SE 6 10.00 Partly Cloudy SCT120 95.2 38.3 14% 91 30.15 0.0
28 16:15 SE 9 10.00 Partly Cloudy SCT110 97.7 39.2 13% 93 30.16 0.0
28 15:55 S 6 10.00 Fair CLR 97.3 40.3 14% 93 30.17 0.0
28 15:35 S 10 10.00 Fair CLR 97 40.6 14% 92 30.18 0.0
28 15:15 NE 3 10.00 Fair CLR 95.4 40.5 15% 91 30.18 0.0
28 14:55 S 5 10.00 Fair CLR 95.5 39.7 14% 91 30.2 0.0
28 14:35 E 3 10.00 Fair CLR 94.5 39.6 15% 90 30.21 0.0
28 14:15 S 8 10.00 Fair CLR 94.6 41.2 16% 90 30.22 0.0
28 13:55 SW 7 10.00 Fair CLR 93.4 41.7 17% 89 30.23 0.0
28 13:35 Calm 10.00 Fair CLR 93.2 42.6 17% 89 30.25 0.0
28 13:15 W 8 10.00 Fair CLR 92.8 42.8 18% 89 30.25 0.0
28 12:55 Calm 10.00 Fair CLR 91 44.1 20% 87 30.27 0.0
28 12:35 W 5 G 16 10.00 Fair CLR 92.1 44.1 19% 88 30.28 0.0
28 12:15 SW 5 10.00 Fair CLR 91 44.8 20% 87 30.29 0.0
28 11:55 SW 8 G 16 10.00 Fair CLR 89.2 45 89.8 68.2 21% 86 30.3 0.0
28 11:35 S 7 10.00 Fair CLR 88.7 45.7 22% 85 30.3 0.0
28 11:15 SW 7 10.00 Fair CLR 87.8 45.9 23% 85 30.3 0.0
28 10:55 S 7 10.00 Fair CLR 86.4 46 25% 83 30.31 0.0
28 10:35 SW 6 10.00 Fair CLR 84.9 46.4 26% 82 30.32 0.0
28 10:15 SW 6 10.00 Fair CLR 84.4 46.6 27% 82 30.32 0.0
28 09:55 S 5 10.00 Fair CLR 82.8 46.4 28% 81 30.32 0.0
28 09:35 Calm 10.00 Fair CLR 80.4 46.4 30% 79 30.32 0.0
28 09:15 Calm 10.00 Fair CLR 78.8 46.4 32% 79 30.32 0.0
28 08:55 NE 3 10.00 Fair CLR 75.2 46.9 37% 77 30.32 0.0
28 08:35 N 3 10.00 Fair CLR 72.3 47.7 42% 30.32 0.0
28 08:15 NE 6 10.00 Fair CLR 71.6 48.2 44% 30.32 0.0
28 07:55 NE 3 10.00 Fair CLR 72.1 47.7 42% 30.31 0.0
Date Time (mdt) Wind (mph) Vis. (mi.) Weather Sky Cond. Air Dwpt Max. Min. Relative Humidity Wind Chill (°F) Heat Index (°F) altimeter (in) sea level (mb) 1 hr 3 hr 6 hr
6 hour
Temperature (ºF) Pressure Precipitation (in)